createdAt,value
2023-02-12T00:00:07.265Z,34.35
2023-02-12T00:02:34.175Z,30.63
2023-02-12T00:05:01.165Z,30.15
2023-02-12T00:07:31.379Z,32.47
2023-02-12T00:09:58.309Z,33.80
2023-02-12T00:12:25.196Z,35.67
2023-02-12T00:14:51.989Z,27.13
2023-02-12T00:17:18.846Z,29.20
2023-02-12T00:19:48.005Z,34.83
2023-02-12T00:22:14.792Z,29.67
2023-02-12T00:24:41.661Z,29.40
2023-02-12T00:27:08.563Z,31.75
2023-02-12T00:29:35.504Z,16.60
2023-02-12T00:32:02.450Z,22.27
2023-02-12T00:34:29.402Z,14.63
2023-02-12T00:36:56.284Z,11.73
2023-02-12T00:39:23.109Z,11.35
2023-02-12T00:41:49.989Z,9.02
2023-02-12T00:44:16.953Z,8.52
2023-02-12T00:46:43.851Z,9.93
2023-02-12T00:49:10.758Z,9.02
2023-02-12T00:51:37.630Z,11.07
2023-02-12T00:54:04.593Z,11.57
2023-02-12T00:56:31.606Z,11.57
2023-02-12T00:58:58.668Z,12.52
2023-02-12T01:01:25.707Z,21.20
2023-02-12T01:03:52.830Z,21.33
2023-02-12T01:06:19.682Z,21.65
2023-02-12T01:08:46.520Z,21.58
2023-02-12T01:11:14.286Z,19.48
2023-02-12T01:13:41.101Z,24.20
2023-02-12T01:16:22.289Z,37.05
2023-02-12T01:18:49.658Z,62.05
2023-02-12T01:21:20.306Z,25.77
2023-02-12T01:23:47.890Z,25.02
2023-02-12T01:26:16.605Z,24.95
2023-02-12T01:28:45.118Z,24.58
2023-02-12T01:31:33.112Z,24.95
2023-02-12T01:34:01.042Z,24.45
2023-02-12T01:36:29.620Z,24.13
2023-02-12T01:38:58.100Z,18.90
2023-02-12T01:41:37.341Z,23.58
2023-02-12T01:44:16.196Z,22.23
2023-02-12T01:46:45.477Z,22.20
2023-02-12T01:49:35.040Z,20.95
2023-02-12T01:52:08.160Z,23.90
2023-02-12T01:54:37.355Z,20.67
2023-02-12T01:57:06.347Z,18.17
2023-02-12T01:59:35.194Z,23.00
2023-02-12T02:02:02.921Z,14.93
2023-02-12T02:04:34.551Z,11.38
2023-02-12T02:07:06.515Z,10.15
2023-02-12T02:09:36.616Z,12.43
2023-02-12T02:12:22.311Z,11.82
2023-02-12T02:14:50.966Z,11.27
2023-02-12T02:17:25.292Z,7.88
2023-02-12T02:20:04.068Z,10.57
2023-02-12T02:22:38.169Z,13.07
2023-02-12T02:25:23.596Z,10.55
2023-02-12T02:28:11.635Z,11.00
2023-02-12T02:31:08.875Z,15.40
2023-02-12T02:34:00.630Z,14.23
2023-02-12T02:36:59.583Z,16.92
2023-02-12T02:39:50.407Z,18.30
2023-02-12T02:42:22.442Z,16.30
2023-02-12T02:44:55.792Z,16.20
2023-02-12T02:47:30.747Z,19.00
2023-02-12T02:50:11.086Z,16.92
2023-02-12T02:52:50.406Z,15.18
2023-02-12T02:55:19.297Z,15.95
2023-02-12T02:58:01.329Z,19.27
2023-02-12T03:00:32.977Z,19.50
2023-02-12T03:03:09.461Z,17.95
2023-02-12T03:05:42.118Z,19.05
2023-02-12T03:08:24.134Z,23.17
2023-02-12T03:11:05.077Z,19.85
2023-02-12T03:13:43.490Z,19.90
2023-02-12T03:16:15.198Z,22.95
2023-02-12T03:18:48.097Z,19.90
2023-02-12T03:21:19.647Z,21.52
2023-02-12T03:24:03.422Z,21.77
2023-02-12T03:26:49.836Z,24.13
2023-02-12T03:29:16.979Z,21.80
2023-02-12T03:32:05.655Z,20.98
2023-02-12T03:34:38.218Z,19.73
2023-02-12T03:37:17.880Z,20.33
2023-02-12T03:39:56.791Z,18.83
2023-02-12T03:42:52.200Z,19.17
2023-02-12T03:45:30.936Z,17.05
2023-02-12T03:48:03.738Z,18.42
2023-02-12T03:50:45.806Z,19.52
2023-02-12T03:53:13.219Z,18.08
2023-02-12T03:55:45.335Z,16.90
2023-02-12T03:58:18.429Z,19.33
2023-02-12T04:00:45.838Z,20.42
2023-02-12T04:03:12.707Z,20.83
2023-02-12T04:05:39.720Z,19.13
2023-02-12T04:08:09.572Z,18.58
2023-02-12T04:11:02.910Z,19.45
2023-02-12T04:14:05.638Z,20.75
2023-02-12T04:16:51.166Z,19.25
2023-02-12T04:19:30.874Z,20.80
2023-02-12T04:22:06.880Z,26.95
2023-02-12T04:24:57.539Z,22.02
2023-02-12T04:27:43.343Z,21.67
2023-02-12T04:32:55.840Z,22.35
2023-02-12T04:35:37.311Z,23.05
2023-02-12T04:38:16.944Z,20.45
2023-02-12T04:40:44.644Z,23.83
2023-02-12T04:43:11.520Z,23.40
2023-02-12T04:45:39.119Z,23.80
2023-02-12T04:48:06.681Z,21.90
2023-02-12T04:50:40.591Z,23.27
2023-02-12T04:53:08.239Z,27.10
2023-02-12T04:55:36.346Z,27.98
2023-02-12T04:58:03.979Z,29.05
2023-02-12T05:00:30.837Z,25.90
2023-02-12T05:02:57.770Z,27.73
2023-02-12T05:05:24.753Z,28.63
2023-02-12T05:07:51.606Z,28.40
2023-02-12T05:10:18.663Z,31.13
2023-02-12T05:12:45.562Z,29.00
2023-02-12T05:15:12.508Z,28.77
2023-02-12T05:17:39.509Z,28.80
2023-02-12T05:20:06.883Z,32.60
2023-02-12T05:22:33.993Z,33.75
2023-02-12T05:25:00.845Z,31.73
2023-02-12T05:27:27.725Z,34.30
2023-02-12T05:29:54.568Z,34.38
2023-02-12T05:32:21.396Z,33.97
2023-02-12T05:34:48.387Z,22.98
2023-02-12T05:37:15.280Z,34.65
2023-02-12T05:39:42.148Z,26.27
2023-02-12T05:42:09.005Z,25.08
2023-02-12T05:44:35.913Z,26.83
2023-02-12T05:47:02.835Z,26.48
2023-02-12T05:49:29.829Z,32.22
2023-02-12T05:51:56.659Z,28.85
2023-02-12T05:54:23.517Z,30.27
2023-02-12T05:56:50.405Z,30.88
2023-02-12T05:59:21.701Z,32.65
2023-02-12T06:01:51.157Z,31.92
2023-02-12T06:04:24.595Z,32.58
2023-02-12T06:06:55.960Z,27.83
2023-02-12T06:09:23.803Z,29.30
2023-02-12T06:11:50.622Z,27.77
2023-02-12T06:14:20.520Z,21.75
2023-02-12T06:16:50.785Z,20.85
2023-02-12T06:19:19.399Z,23.92
2023-02-12T06:21:46.656Z,25.75
2023-02-12T06:24:15.637Z,21.20
2023-02-12T06:26:43.183Z,21.23
2023-02-12T06:29:10.337Z,20.00
2023-02-12T06:31:38.113Z,24.45
2023-02-12T06:34:08.323Z,18.63
2023-02-12T06:36:38.169Z,20.25
2023-02-12T06:39:05.583Z,20.42
2023-02-12T06:41:32.665Z,20.88
2023-02-12T06:43:59.627Z,20.42
2023-02-12T06:46:26.939Z,20.73
2023-02-12T06:48:55.770Z,21.38
2023-02-12T06:51:23.737Z,22.17
2023-02-12T06:53:52.374Z,32.58
2023-02-12T06:56:20.564Z,42.22
2023-02-12T06:58:54.065Z,38.00
2023-02-12T07:01:23.730Z,38.35
2023-02-12T07:03:53.532Z,33.53
2023-02-12T07:06:21.658Z,31.85
2023-02-12T07:08:48.697Z,29.38
2023-02-12T07:11:16.096Z,27.80
2023-02-12T07:13:44.098Z,40.30
2023-02-12T07:16:14.581Z,36.03
2023-02-12T07:18:42.236Z,29.85
2023-02-12T07:21:11.004Z,34.10
2023-02-12T07:23:38.157Z,49.25
2023-02-12T07:26:15.265Z,39.33
2023-02-12T07:28:42.953Z,41.83
2023-02-12T07:31:18.901Z,40.67
2023-02-12T07:33:46.425Z,34.35
2023-02-12T07:36:16.026Z,33.50
2023-02-12T07:38:43.186Z,30.23
2023-02-12T07:41:22.508Z,23.88
2023-02-12T07:43:54.736Z,25.63
2023-02-12T07:46:30.020Z,25.33
2023-02-12T07:48:59.229Z,25.00
2023-02-12T07:51:27.087Z,29.27
2023-02-12T07:53:54.799Z,29.45
2023-02-12T07:56:24.666Z,28.88
2023-02-12T07:58:53.754Z,26.05
2023-02-12T08:01:29.856Z,30.88
2023-02-12T08:06:37.643Z,25.83
2023-02-12T08:09:07.143Z,27.10
2023-02-12T08:11:34.192Z,27.77
2023-02-12T08:14:01.566Z,26.17
2023-02-12T08:16:30.014Z,22.17
2023-02-12T08:19:07.313Z,23.90
2023-02-12T08:21:41.958Z,20.08
2023-02-12T08:24:10.660Z,15.73
2023-02-12T08:26:38.960Z,19.95
2023-02-12T08:29:07.068Z,16.92
2023-02-12T08:31:36.811Z,16.77
2023-02-12T08:34:03.940Z,16.83
2023-02-12T08:36:38.167Z,18.38
2023-02-12T08:39:08.793Z,16.65
2023-02-12T08:41:35.864Z,15.93
2023-02-12T08:44:05.065Z,16.77
2023-02-12T08:46:35.385Z,16.98
2023-02-12T08:49:12.278Z,17.30
2023-02-12T08:51:42.062Z,16.60
2023-02-12T08:54:15.060Z,19.20
2023-02-12T08:56:42.845Z,21.35
2023-02-12T08:59:11.752Z,21.27
2023-02-12T09:01:42.006Z,24.05
2023-02-12T09:04:17.758Z,24.60
2023-02-12T09:06:46.272Z,19.65
2023-02-12T09:09:13.545Z,17.73
2023-02-12T09:11:40.560Z,16.75
2023-02-12T09:14:11.284Z,15.93
2023-02-12T09:16:39.652Z,17.45
2023-02-12T09:19:07.321Z,25.45
2023-02-12T09:21:34.340Z,21.15
2023-02-12T09:24:02.690Z,16.50
2023-02-12T09:26:29.653Z,18.67
2023-02-12T09:28:56.909Z,18.08
2023-02-12T09:31:29.467Z,18.13
2023-02-12T09:34:00.499Z,17.40
2023-02-12T09:36:27.859Z,21.17
2023-02-12T09:38:55.060Z,19.00
2023-02-12T09:41:38.852Z,18.15
2023-02-12T09:44:40.859Z,18.13
2023-02-12T09:47:17.347Z,18.40
2023-02-12T09:50:21.372Z,18.95
2023-02-12T09:52:49.441Z,17.55
2023-02-12T09:55:19.181Z,17.13
2023-02-12T09:57:46.596Z,19.33
2023-02-12T10:00:29.027Z,19.75
2023-02-12T10:02:56.238Z,19.50
2023-02-12T10:05:28.745Z,18.45
2023-02-12T10:08:10.776Z,19.33
2023-02-12T10:10:56.166Z,18.65
2023-02-12T10:13:33.705Z,21.02
2023-02-12T10:16:15.271Z,19.40
2023-02-12T10:19:13.376Z,26.08
2023-02-12T10:22:06.485Z,20.17
2023-02-12T10:24:49.289Z,19.33
2023-02-12T10:27:19.016Z,21.48
2023-02-12T10:29:48.876Z,20.65
2023-02-12T10:32:36.907Z,26.13
2023-02-12T10:35:14.601Z,20.85
2023-02-12T10:38:04.562Z,20.05
2023-02-12T10:40:37.714Z,20.70
2023-02-12T10:43:04.737Z,23.27
2023-02-12T10:45:33.623Z,22.60
2023-02-12T10:48:15.095Z,21.63
2023-02-12T10:51:03.871Z,22.25
2023-02-12T10:53:38.216Z,22.60
2023-02-12T10:56:20.180Z,22.45
2023-02-12T10:58:50.129Z,22.02
2023-02-12T11:01:18.298Z,21.20
2023-02-12T11:03:45.317Z,18.60
2023-02-12T11:06:28.252Z,21.27
2023-02-12T11:08:56.087Z,24.23
2023-02-12T11:11:30.727Z,20.63
2023-02-12T11:14:20.399Z,24.80
2023-02-12T11:16:53.177Z,24.08
2023-02-12T11:19:23.546Z,22.58
2023-02-12T11:21:51.681Z,23.83
2023-02-12T11:24:33.894Z,24.85
2023-02-12T11:27:16.088Z,27.17
2023-02-12T11:29:44.606Z,21.45
2023-02-12T11:32:20.103Z,27.23
2023-02-12T11:35:13.089Z,27.42
2023-02-12T11:37:43.474Z,24.23
2023-02-12T11:40:21.708Z,31.50
2023-02-12T11:42:56.160Z,27.73
2023-02-12T11:45:32.402Z,26.85
2023-02-12T11:47:59.439Z,27.55
2023-02-12T11:50:30.039Z,26.10
2023-02-12T11:53:08.154Z,23.05
2023-02-12T11:55:38.350Z,26.33
2023-02-12T11:58:27.258Z,26.67
2023-02-12T12:00:57.015Z,27.30
2023-02-12T12:03:44.894Z,26.20
2023-02-12T12:06:29.872Z,27.75
2023-02-12T12:09:02.642Z,27.03
2023-02-12T12:11:33.191Z,24.63
2023-02-12T12:14:22.593Z,25.20
2023-02-12T12:17:24.867Z,25.77
2023-02-12T12:20:04.413Z,29.35
2023-02-12T12:22:49.392Z,29.27
2023-02-12T12:25:28.601Z,27.00
2023-02-12T12:28:08.082Z,27.98
2023-02-12T12:31:07.470Z,28.80
2023-02-12T12:33:34.299Z,31.40
2023-02-12T12:36:25.268Z,31.17
2023-02-12T12:39:14.642Z,29.95
2023-02-12T12:42:02.592Z,32.25
2023-02-12T12:44:47.220Z,36.63
2023-02-12T12:47:32.924Z,35.38
2023-02-12T12:53:12.997Z,30.13
2023-02-12T12:55:58.614Z,35.87
2023-02-12T12:58:43.761Z,32.22
2023-02-12T13:01:45.627Z,36.67
2023-02-12T13:04:31.302Z,36.60
2023-02-12T13:07:10.334Z,31.27
2023-02-12T13:09:55.815Z,31.40
2023-02-12T13:12:45.488Z,32.25
2023-02-12T13:15:15.493Z,31.30
2023-02-12T13:18:11.851Z,32.00
2023-02-12T13:20:51.082Z,31.55
2023-02-12T13:23:20.765Z,32.20
2023-02-12T13:25:50.334Z,32.33
2023-02-12T13:28:33.886Z,33.25
2023-02-12T13:31:09.474Z,32.90
2023-02-12T13:33:49.119Z,31.77
2023-02-12T13:36:16.284Z,28.90
2023-02-12T13:39:08.370Z,34.05
2023-02-12T13:41:36.221Z,33.17
2023-02-12T13:44:33.367Z,31.70
2023-02-12T13:47:12.744Z,33.40
2023-02-12T13:49:57.969Z,35.08
2023-02-12T13:52:44.745Z,32.58
2023-02-12T13:55:23.355Z,31.98
2023-02-12T13:58:27.837Z,30.25
2023-02-12T14:01:14.792Z,32.10
2023-02-12T14:03:41.835Z,28.85
2023-02-12T14:06:18.755Z,31.35
2023-02-12T14:08:52.693Z,35.10
2023-02-12T14:11:24.489Z,31.80
2023-02-12T14:13:56.633Z,31.70
2023-02-12T14:16:29.660Z,31.73
2023-02-12T14:19:33.919Z,33.03
2023-02-12T14:22:02.563Z,34.83
2023-02-12T14:24:38.263Z,32.38
2023-02-12T14:27:17.734Z,31.90
2023-02-12T14:30:09.902Z,42.65
2023-02-12T14:32:58.310Z,30.10
2023-02-12T14:35:46.252Z,33.33
2023-02-12T14:38:15.974Z,33.10
2023-02-12T14:40:50.488Z,34.10
2023-02-12T14:44:01.837Z,32.20
2023-02-12T14:46:28.709Z,35.60
2023-02-12T14:48:59.175Z,34.40
2023-02-12T14:51:45.574Z,32.72
2023-02-12T14:54:34.843Z,31.08
2023-02-12T14:57:27.919Z,30.00
2023-02-12T15:00:16.446Z,31.13
2023-02-12T15:02:51.814Z,29.50
2023-02-12T15:05:32.452Z,29.52
2023-02-12T15:08:16.921Z,30.48
2023-02-12T15:10:57.115Z,37.28
2023-02-12T15:13:30.317Z,32.00
2023-02-12T15:16:14.961Z,31.63
2023-02-12T15:18:42.020Z,31.25
2023-02-12T15:21:23.958Z,32.78
2023-02-12T15:24:12.122Z,31.38
2023-02-12T15:26:47.313Z,31.27
2023-02-12T15:29:41.665Z,38.33
2023-02-12T15:32:16.040Z,31.50
2023-02-12T15:34:44.873Z,34.25
2023-02-12T15:37:22.710Z,33.65
2023-02-12T15:39:53.440Z,33.85
2023-02-12T15:42:40.435Z,34.72
2023-02-12T15:45:17.903Z,33.13
2023-02-12T15:47:46.356Z,37.50
2023-02-12T15:50:14.945Z,35.20
2023-02-12T15:52:46.182Z,35.63
2023-02-12T15:55:22.727Z,36.95
2023-02-12T15:57:58.581Z,38.35
2023-02-12T16:00:44.407Z,36.70
2023-02-12T16:03:23.387Z,35.47
2023-02-12T16:05:51.599Z,37.97
2023-02-12T16:08:21.540Z,36.10
2023-02-12T16:10:52.406Z,36.58
2023-02-12T16:13:27.307Z,40.15
2023-02-12T16:16:12.563Z,41.20
2023-02-12T16:18:41.244Z,39.05
2023-02-12T16:21:20.961Z,39.53
2023-02-12T16:23:50.265Z,37.25
2023-02-12T16:26:23.524Z,39.15
2023-02-12T16:28:54.202Z,46.97
2023-02-12T16:31:24.626Z,42.08
2023-02-12T16:33:55.589Z,39.75
2023-02-12T16:36:25.304Z,40.55
2023-02-12T16:38:54.482Z,38.20
2023-02-12T16:41:27.077Z,41.33
2023-02-12T16:44:02.915Z,40.85
2023-02-12T16:46:34.403Z,43.50
2023-02-12T16:49:03.331Z,39.65
2023-02-12T16:51:35.776Z,41.10
2023-02-12T16:54:05.038Z,42.75
2023-02-12T16:56:37.934Z,40.95
2023-02-12T16:59:05.172Z,49.65
2023-02-12T17:01:37.028Z,42.03
2023-02-12T17:04:12.166Z,45.78
2023-02-12T17:06:39.041Z,40.60
2023-02-12T17:09:05.864Z,45.53
2023-02-12T17:11:32.742Z,39.00
2023-02-12T17:13:59.656Z,44.30
2023-02-12T17:16:31.507Z,43.10
2023-02-12T17:19:00.198Z,47.53
2023-02-12T17:21:38.350Z,44.80
2023-02-12T17:24:22.678Z,42.53
2023-02-12T17:26:50.657Z,42.60
2023-02-12T17:29:19.428Z,49.88
2023-02-12T17:31:48.009Z,46.70
2023-02-12T17:34:15.632Z,49.80
2023-02-12T17:36:42.960Z,50.78
2023-02-12T17:39:12.353Z,44.60
2023-02-12T17:41:40.651Z,46.67
2023-02-12T17:44:07.977Z,48.22
2023-02-12T17:46:35.224Z,47.53
2023-02-12T17:49:03.352Z,50.03
2023-02-12T17:51:30.155Z,59.60
2023-02-12T17:53:57.026Z,53.78
2023-02-12T17:56:25.727Z,52.03
2023-02-12T17:58:52.911Z,50.58
2023-02-12T18:01:22.880Z,48.20
2023-02-12T18:03:52.374Z,49.45
2023-02-12T18:06:26.637Z,46.20
2023-02-12T18:08:54.296Z,50.75
2023-02-12T18:11:21.522Z,53.13
2023-02-12T18:13:48.393Z,53.55
2023-02-12T18:16:15.700Z,51.72
2023-02-12T18:18:42.580Z,52.90
2023-02-12T18:21:11.368Z,56.03
2023-02-12T18:23:38.957Z,52.05
2023-02-12T18:26:15.013Z,55.03
2023-02-12T18:28:42.824Z,56.60
2023-02-12T18:31:10.964Z,56.47
2023-02-12T18:33:38.720Z,54.10
2023-02-12T18:36:11.730Z,57.65
2023-02-12T18:38:41.115Z,56.00
2023-02-12T18:41:07.974Z,57.53
2023-02-12T18:43:36.122Z,55.25
2023-02-12T18:46:20.832Z,59.22
2023-02-12T18:48:47.764Z,55.15
2023-02-12T18:51:17.958Z,53.85
2023-02-12T18:53:46.408Z,56.22
2023-02-12T18:56:13.674Z,55.63
2023-02-12T18:58:40.975Z,57.85
2023-02-12T19:01:19.230Z,55.88
2023-02-12T19:03:48.680Z,57.50
2023-02-12T19:06:15.560Z,64.63
2023-02-12T19:08:42.463Z,58.90
2023-02-12T19:11:10.732Z,61.40
2023-02-12T19:13:38.267Z,59.83
2023-02-12T19:16:13.699Z,61.72
2023-02-12T19:18:40.954Z,60.10
2023-02-12T19:21:10.791Z,59.92
2023-02-12T19:23:38.375Z,58.67
2023-02-12T19:26:08.242Z,58.88
2023-02-12T19:28:35.795Z,56.35
2023-02-12T19:31:21.973Z,59.30
2023-02-12T19:33:49.963Z,59.22
2023-02-12T19:36:19.879Z,59.10
2023-02-12T19:38:48.322Z,56.60
2023-02-12T19:41:20.854Z,59.08
2023-02-12T19:43:48.406Z,59.40
2023-02-12T19:46:18.387Z,56.60
2023-02-12T19:48:47.108Z,58.75
2023-02-12T19:51:16.540Z,60.63
2023-02-12T19:53:43.995Z,59.00
2023-02-12T19:56:10.990Z,62.38
2023-02-12T19:58:38.817Z,59.58
2023-02-12T20:01:17.529Z,56.90
2023-02-12T20:03:46.132Z,59.63
2023-02-12T20:06:16.659Z,59.63
2023-02-12T20:08:44.395Z,64.50
2023-02-12T20:11:14.945Z,64.10
2023-02-12T20:13:42.754Z,63.10
2023-02-12T20:16:16.305Z,62.08
2023-02-12T20:18:48.355Z,62.25
2023-02-12T20:21:22.354Z,60.38
2023-02-12T20:23:49.839Z,61.53
2023-02-12T20:26:19.709Z,62.33
2023-02-12T20:28:47.596Z,64.03
2023-02-12T20:31:25.463Z,58.70
2023-02-12T20:34:01.010Z,69.80
2023-02-12T20:36:31.691Z,65.72
2023-02-12T20:38:59.232Z,63.40
2023-02-12T20:41:27.517Z,61.03
2023-02-12T20:43:55.396Z,63.22
2023-02-12T20:46:23.639Z,64.80
2023-02-12T20:48:50.683Z,61.15
2023-02-12T20:51:19.897Z,60.75
2023-02-12T20:53:47.121Z,66.50
2023-02-12T20:56:24.903Z,61.67
2023-02-12T20:58:52.724Z,67.82
2023-02-12T21:01:24.032Z,67.95
2023-02-12T21:03:52.683Z,67.93
2023-02-12T21:06:21.331Z,60.60
2023-02-12T21:08:52.542Z,66.22
2023-02-12T21:11:22.736Z,66.88
2023-02-12T21:13:58.764Z,69.40
2023-02-12T21:16:30.671Z,62.55
2023-02-12T21:18:57.671Z,64.30
2023-02-12T21:21:29.051Z,64.72
2023-02-12T21:23:58.157Z,65.43
2023-02-12T21:26:27.284Z,67.10
2023-02-12T21:28:57.323Z,63.20
2023-02-12T21:31:27.417Z,64.75
2023-02-12T21:33:55.718Z,69.68
2023-02-12T21:36:30.434Z,72.10
2023-02-12T21:38:58.203Z,67.43
2023-02-12T21:41:35.753Z,63.63
2023-02-12T21:44:14.069Z,67.18
2023-02-12T21:46:41.380Z,65.35
2023-02-12T21:49:08.448Z,66.65
2023-02-12T21:51:39.658Z,65.55
2023-02-12T21:54:09.954Z,65.53
2023-02-12T21:56:38.099Z,65.78
2023-02-12T21:59:05.805Z,67.85
2023-02-12T22:01:35.714Z,71.57
2023-02-12T22:04:06.862Z,65.95
2023-02-12T22:06:37.715Z,70.32
2023-02-12T22:09:07.934Z,68.53
2023-02-12T22:11:39.571Z,68.40
2023-02-12T22:14:08.329Z,64.68
2023-02-12T22:16:36.472Z,70.93
2023-02-12T22:19:04.939Z,65.40
2023-02-12T22:21:38.695Z,66.18
2023-02-12T22:24:07.652Z,72.47
2023-02-12T22:26:34.714Z,67.88
2023-02-12T22:29:09.643Z,71.53
2023-02-12T22:31:38.627Z,66.95
2023-02-12T22:34:09.830Z,67.57
2023-02-12T22:36:37.704Z,69.78
2023-02-12T22:39:05.684Z,65.95
2023-02-12T22:41:33.234Z,67.60
2023-02-12T22:44:01.830Z,75.40
2023-02-12T22:46:28.801Z,77.63
2023-02-12T22:48:55.724Z,66.88
2023-02-12T22:51:29.306Z,70.70
2023-02-12T22:53:56.884Z,65.25
2023-02-12T22:56:24.893Z,71.72
2023-02-12T22:59:00.048Z,73.25
2023-02-12T23:01:27.948Z,77.10
2023-02-12T23:03:55.450Z,68.07
2023-02-12T23:06:25.912Z,71.47
2023-02-12T23:08:55.549Z,67.10
2023-02-12T23:11:24.476Z,66.30
2023-02-12T23:13:52.126Z,65.45
2023-02-12T23:16:19.378Z,69.10
2023-02-12T23:18:46.655Z,71.30
2023-02-12T23:21:14.236Z,70.82
2023-02-12T23:23:41.252Z,69.30
2023-02-12T23:26:08.027Z,71.15
2023-02-12T23:28:34.923Z,69.88
2023-02-12T23:31:02.368Z,73.10
2023-02-12T23:33:29.402Z,75.78
2023-02-12T23:35:56.278Z,70.78
2023-02-12T23:38:23.103Z,74.30
2023-02-12T23:40:49.942Z,72.32
2023-02-12T23:43:16.882Z,72.88
2023-02-12T23:45:45.007Z,73.28
2023-02-12T23:48:12.063Z,76.90
2023-02-12T23:50:39.609Z,75.40
2023-02-12T23:53:06.831Z,75.63
2023-02-12T23:55:36.845Z,73.63
2023-02-12T23:58:04.915Z,77.03
